createdAt,value
2022-12-15T00:02:19.592Z,13.23
2022-12-15T00:07:29.781Z,13.53
2022-12-15T00:12:40.211Z,12.63
2022-12-15T00:17:50.188Z,13.80
2022-12-15T00:23:00.272Z,11.97
2022-12-15T00:28:10.500Z,13.90
2022-12-15T00:33:26.677Z,12.23
2022-12-15T00:38:36.943Z,12.43
2022-12-15T00:43:33.824Z,12.43
2022-12-15T00:48:25.609Z,12.07
2022-12-15T00:53:35.969Z,12.27
2022-12-15T00:58:46.666Z,12.57
2022-12-15T01:03:56.939Z,13.37
2022-12-15T01:09:07.169Z,12.53
2022-12-15T01:14:17.383Z,12.83
2022-12-15T01:19:27.785Z,12.07
2022-12-15T01:24:19.309Z,13.23
2022-12-15T01:29:10.880Z,11.97
2022-12-15T01:34:02.445Z,12.37
2022-12-15T01:38:54.638Z,12.23
2022-12-15T01:43:46.746Z,12.57
2022-12-15T01:49:12.032Z,14.47
2022-12-15T01:54:23.300Z,12.87
2022-12-15T01:59:20.882Z,13.43
2022-12-15T02:04:12.636Z,12.97
2022-12-15T02:09:04.897Z,13.07
2022-12-15T02:14:08.116Z,12.93
2022-12-15T02:19:19.305Z,14.03
2022-12-15T02:24:29.701Z,13.57
2022-12-15T02:29:38.452Z,12.87
2022-12-15T02:34:48.229Z,13.73
2022-12-15T02:39:39.908Z,13.63
2022-12-15T02:44:53.094Z,14.37
2022-12-15T02:50:09.783Z,13.67
2022-12-15T02:55:29.185Z,13.93
2022-12-15T03:00:21.891Z,13.23
2022-12-15T03:05:14.927Z,14.17
2022-12-15T03:10:07.402Z,14.40
2022-12-15T03:14:58.970Z,12.33
2022-12-15T03:19:50.509Z,13.93
2022-12-15T03:24:42.193Z,12.50
2022-12-15T03:29:33.749Z,13.90
2022-12-15T03:34:26.093Z,12.37
2022-12-15T03:39:17.644Z,13.80
2022-12-15T03:44:09.297Z,12.93
2022-12-15T03:49:00.899Z,12.93
2022-12-15T03:53:53.665Z,12.10
2022-12-15T03:58:45.287Z,13.60
2022-12-15T04:03:36.897Z,12.93
2022-12-15T04:08:28.449Z,12.73
2022-12-15T04:13:19.953Z,11.07
2022-12-15T04:18:11.589Z,12.20
2022-12-15T04:23:03.247Z,12.27
2022-12-15T04:28:14.430Z,12.90
2022-12-15T04:33:29.202Z,11.40
2022-12-15T04:38:50.277Z,11.37
2022-12-15T04:44:01.030Z,10.87
2022-12-15T04:49:11.206Z,11.50
2022-12-15T04:54:21.494Z,10.37
2022-12-15T04:59:31.714Z,11.17
2022-12-15T05:04:42.171Z,11.13
2022-12-15T05:09:52.513Z,10.93
2022-12-15T05:15:02.720Z,12.60
2022-12-15T05:20:12.901Z,11.13
2022-12-15T05:25:23.020Z,10.40
2022-12-15T05:30:33.232Z,11.10
2022-12-15T05:35:25.020Z,11.07
2022-12-15T05:40:16.675Z,11.30
2022-12-15T05:45:10.047Z,9.93
2022-12-15T05:50:01.808Z,10.50
2022-12-15T05:54:53.373Z,11.03
2022-12-15T05:59:45.029Z,11.03
2022-12-15T06:04:36.636Z,9.93
2022-12-15T06:09:28.991Z,11.73
2022-12-15T06:14:20.553Z,11.77
2022-12-15T06:19:12.172Z,10.93
2022-12-15T06:24:06.029Z,11.43
2022-12-15T06:29:02.508Z,11.57
2022-12-15T06:34:01.376Z,11.60
2022-12-15T06:38:53.977Z,12.27
2022-12-15T06:43:50.701Z,12.70
2022-12-15T06:48:46.676Z,11.53
2022-12-15T06:53:40.791Z,12.10
2022-12-15T06:58:32.483Z,12.20
2022-12-15T07:03:24.917Z,11.17
2022-12-15T07:08:16.746Z,12.77
2022-12-15T07:13:12.495Z,12.63
2022-12-15T07:18:04.045Z,14.83
2022-12-15T07:22:55.850Z,13.83
2022-12-15T07:27:47.486Z,13.80
2022-12-15T07:32:39.053Z,13.30
2022-12-15T07:37:30.830Z,14.13
2022-12-15T07:42:22.465Z,14.60
2022-12-15T07:47:15.141Z,13.77
2022-12-15T07:52:06.714Z,14.67
2022-12-15T07:57:00.181Z,14.57
2022-12-15T08:01:52.555Z,16.03
2022-12-15T08:06:44.563Z,15.07
2022-12-15T08:11:36.271Z,14.70
2022-12-15T08:16:29.203Z,14.27
2022-12-15T08:21:20.883Z,14.60
2022-12-15T08:26:15.049Z,15.03
2022-12-15T08:31:09.276Z,15.33
2022-12-15T08:36:03.069Z,14.90
2022-12-15T08:40:54.762Z,17.27
2022-12-15T08:45:46.562Z,15.87
2022-12-15T08:50:38.254Z,16.87
2022-12-15T08:55:29.935Z,17.07
2022-12-15T09:00:21.670Z,16.10
2022-12-15T09:05:13.385Z,17.53
2022-12-15T09:10:05.362Z,16.57
2022-12-15T09:14:56.982Z,16.87
2022-12-15T09:19:48.551Z,16.43
2022-12-15T09:24:40.421Z,16.67
2022-12-15T09:29:32.935Z,17.63
2022-12-15T09:34:24.503Z,17.20
2022-12-15T09:39:16.943Z,17.10
2022-12-15T09:44:21.049Z,17.80
2022-12-15T09:49:22.619Z,18.23
2022-12-15T09:54:14.250Z,18.63
2022-12-15T09:59:22.076Z,17.43
2022-12-15T10:04:31.385Z,19.03
2022-12-15T10:09:30.144Z,18.40
2022-12-15T10:14:46.173Z,17.70
2022-12-15T10:19:46.665Z,16.70
2022-12-15T10:25:09.097Z,18.87
2022-12-15T10:30:05.218Z,18.07
2022-12-15T10:34:56.944Z,18.77
2022-12-15T10:39:50.704Z,18.20
2022-12-15T10:44:45.413Z,19.20
2022-12-15T10:49:42.349Z,18.23
2022-12-15T10:54:45.494Z,17.97
2022-12-15T10:59:40.762Z,19.33
2022-12-15T11:04:33.695Z,20.13
2022-12-15T11:09:33.187Z,20.60
2022-12-15T11:14:40.775Z,20.17
2022-12-15T11:19:44.736Z,18.80
2022-12-15T11:25:09.970Z,20.07
2022-12-15T11:30:19.552Z,20.03
2022-12-15T11:35:14.429Z,18.17
2022-12-15T11:40:28.537Z,19.67
2022-12-15T11:45:41.584Z,20.13
2022-12-15T11:50:51.423Z,18.60
2022-12-15T11:55:57.855Z,20.37
2022-12-15T12:01:04.742Z,20.70
2022-12-15T12:06:01.330Z,19.00
2022-12-15T12:11:39.317Z,18.07
2022-12-15T12:16:53.019Z,19.00
2022-12-15T12:21:53.262Z,20.23
2022-12-15T12:26:48.749Z,18.73
2022-12-15T12:31:57.716Z,19.50
2022-12-15T12:36:58.816Z,19.83
2022-12-15T12:42:04.702Z,19.70
2022-12-15T12:46:58.617Z,19.77
2022-12-15T12:51:54.019Z,19.03
2022-12-15T13:02:21.466Z,17.73
2022-12-15T13:07:32.043Z,18.80
2022-12-15T13:12:51.636Z,17.80
2022-12-15T13:17:51.091Z,20.43
2022-12-15T13:22:43.372Z,17.80
2022-12-15T13:27:37.043Z,19.27
2022-12-15T13:32:46.683Z,18.80
2022-12-15T13:37:49.028Z,19.07
2022-12-15T13:42:53.050Z,17.20
2022-12-15T13:47:53.543Z,18.03
2022-12-15T13:53:22.955Z,17.33
2022-12-15T13:58:18.106Z,18.23
2022-12-15T14:03:12.843Z,17.23
2022-12-15T14:08:10.806Z,16.80
2022-12-15T14:13:16.276Z,17.27
2022-12-15T14:18:41.375Z,17.83
2022-12-15T14:23:58.046Z,17.37
2022-12-15T14:29:05.494Z,16.67
2022-12-15T14:34:08.704Z,16.50
2022-12-15T14:39:05.313Z,16.70
2022-12-15T14:44:31.230Z,16.90
2022-12-15T14:49:22.947Z,17.27
2022-12-15T14:54:38.155Z,15.30
2022-12-15T14:59:33.760Z,17.53
2022-12-15T15:03:11.193Z,19.87
2022-12-15T15:04:29.856Z,17.10
2022-12-15T15:09:25.759Z,16.20
2022-12-15T15:14:28.641Z,16.43
2022-12-15T15:19:22.664Z,17.30
2022-12-15T15:24:14.178Z,15.93
2022-12-15T15:29:36.457Z,16.87
2022-12-15T15:34:27.970Z,17.67
2022-12-15T15:39:21.449Z,17.90
2022-12-15T15:44:15.458Z,16.67
2022-12-15T15:49:09.381Z,18.50
2022-12-15T15:54:23.350Z,19.07
2022-12-15T15:59:17.930Z,18.20
2022-12-15T16:04:09.542Z,17.87
2022-12-15T16:09:01.790Z,19.83
2022-12-15T16:13:53.495Z,19.63
2022-12-15T16:18:45.868Z,18.63
2022-12-15T16:23:37.652Z,18.63
2022-12-15T16:28:31.258Z,18.13
2022-12-15T16:33:23.443Z,18.93
2022-12-15T16:38:22.591Z,16.87
2022-12-15T16:43:19.876Z,18.33
2022-12-15T16:48:12.492Z,18.00
2022-12-15T16:53:04.592Z,18.57
2022-12-15T16:58:05.407Z,18.03
2022-12-15T17:02:57.388Z,18.63
2022-12-15T17:07:54.599Z,19.57
2022-12-15T17:12:47.370Z,19.70
2022-12-15T17:17:38.974Z,19.17
2022-12-15T17:22:30.558Z,18.07
2022-12-15T17:27:28.059Z,19.57
2022-12-15T17:32:19.642Z,18.77
2022-12-15T17:37:14.139Z,18.87
2022-12-15T17:42:16.859Z,18.73
2022-12-15T17:47:08.987Z,19.63
2022-12-15T17:52:05.081Z,18.83
2022-12-15T17:56:56.661Z,19.67
2022-12-15T18:01:49.149Z,21.03
2022-12-15T18:06:43.430Z,21.53
2022-12-15T18:11:35.057Z,20.57
2022-12-15T18:16:26.704Z,19.20
2022-12-15T18:21:18.249Z,18.93
2022-12-15T18:26:13.208Z,19.07
2022-12-15T18:31:14.872Z,17.37
2022-12-15T18:36:06.680Z,19.30
2022-12-15T18:41:01.064Z,19.83
2022-12-15T18:45:52.860Z,19.30
2022-12-15T18:50:46.397Z,19.13
2022-12-15T18:55:37.968Z,20.37
2022-12-15T19:00:30.354Z,20.47
2022-12-15T19:05:28.374Z,18.13
2022-12-15T19:10:19.987Z,19.30
2022-12-15T19:15:19.565Z,19.67
2022-12-15T19:20:38.625Z,21.53
2022-12-15T19:25:31.358Z,19.40
2022-12-15T19:30:22.883Z,20.37
2022-12-15T19:35:14.573Z,20.07
2022-12-15T19:40:07.471Z,19.77
2022-12-15T19:45:01.394Z,20.87
2022-12-15T19:49:53.548Z,21.37
2022-12-15T19:54:49.703Z,21.67
2022-12-15T19:59:42.014Z,21.33
2022-12-15T20:04:34.001Z,21.00
2022-12-15T20:09:25.569Z,20.33
2022-12-15T20:14:17.864Z,18.53
2022-12-15T20:19:09.992Z,21.93
2022-12-15T20:24:07.708Z,23.53
2022-12-15T20:28:59.369Z,20.80
2022-12-15T20:33:52.152Z,20.17
2022-12-15T20:38:44.721Z,22.00
2022-12-15T20:43:36.569Z,19.60
2022-12-15T20:48:30.014Z,21.30
2022-12-15T20:53:25.288Z,22.30
2022-12-15T20:58:18.405Z,21.23
2022-12-15T21:03:20.760Z,22.60
2022-12-15T21:08:25.417Z,22.90
2022-12-15T21:13:22.662Z,25.60
2022-12-15T21:18:57.292Z,21.40
2022-12-15T21:23:30.864Z,23.23
2022-12-15T21:28:23.534Z,22.40
2022-12-15T21:33:15.797Z,25.27
2022-12-15T21:38:20.162Z,22.73
2022-12-15T21:43:11.874Z,23.70
2022-12-15T21:48:22.028Z,23.23
2022-12-15T21:53:17.326Z,24.60
2022-12-15T21:58:19.625Z,24.73
2022-12-15T22:03:11.339Z,24.73
2022-12-15T22:08:18.337Z,22.67
2022-12-15T22:13:14.760Z,21.87
2022-12-15T22:18:11.981Z,22.27
2022-12-15T22:23:03.796Z,22.23
2022-12-15T22:27:56.222Z,22.10
2022-12-15T22:32:49.276Z,21.40
2022-12-15T22:37:41.065Z,24.83
2022-12-15T22:42:32.661Z,21.73
2022-12-15T22:47:24.612Z,22.30
2022-12-15T22:52:18.713Z,20.70
2022-12-15T22:57:20.563Z,22.63
2022-12-15T23:02:12.384Z,20.83
2022-12-15T23:07:07.676Z,20.93
2022-12-15T23:11:59.318Z,20.47
2022-12-15T23:16:50.933Z,19.50
2022-12-15T23:21:42.622Z,21.50
2022-12-15T23:26:34.179Z,21.70
2022-12-15T23:31:25.779Z,20.53
2022-12-15T23:36:17.463Z,22.17
2022-12-15T23:41:15.645Z,22.20
2022-12-15T23:46:07.304Z,22.93
2022-12-15T23:51:20.317Z,21.47
2022-12-15T23:56:17.263Z,21.80
